sensor_id;sensor_type;location;lat;lon;timestamp;pressure;altitude;pressure_sealevel;temperature;humidity
69528;BME280;57136;51.986;4.468;2023-02-15T00:01:13;103023.91;;;2.03;100.00
69528;BME280;57136;51.986;4.468;2023-02-15T00:03:39;103019.19;;;1.98;100.00
69528;BME280;57136;51.986;4.468;2023-02-15T00:06:05;103025.13;;;1.97;100.00
69528;BME280;57136;51.986;4.468;2023-02-15T00:08:31;103018.06;;;1.94;100.00
69528;BME280;57136;51.986;4.468;2023-02-15T00:11:07;103015.50;;;1.94;100.00
69528;BME280;57136;51.986;4.468;2023-02-15T00:13:32;103012.84;;;2.04;100.00
69528;BME280;57136;51.986;4.468;2023-02-15T00:16:02;103011.94;;;2.04;100.00
69528;BME280;57136;51.986;4.468;2023-02-15T00:18:29;103008.47;;;2.03;100.00
69528;BME280;57136;51.986;4.468;2023-02-15T00:20:54;103004.66;;;1.98;100.00
69528;BME280;57136;51.986;4.468;2023-02-15T00:23:20;103006.00;;;1.93;100.00
69528;BME280;57136;51.986;4.468;2023-02-15T00:25:45;102997.28;;;1.91;100.00
69528;BME280;57136;51.986;4.468;2023-02-15T00:28:10;102998.03;;;1.90;100.00
69528;BME280;57136;51.986;4.468;2023-02-15T00:30:36;102999.50;;;1.86;100.00
69528;BME280;57136;51.986;4.468;2023-02-15T00:33:01;102987.53;;;1.87;100.00
69528;BME280;57136;51.986;4.468;2023-02-15T00:35:26;102986.66;;;1.86;100.00
69528;BME280;57136;51.986;4.468;2023-02-15T00:37:52;102983.94;;;1.85;100.00
69528;BME280;57136;51.986;4.468;2023-02-15T00:42:58;102984.72;;;1.84;100.00
69528;BME280;57136;51.986;4.468;2023-02-15T00:45:36;102983.38;;;1.77;100.00
69528;BME280;57136;51.986;4.468;2023-02-15T00:48:02;102989.84;;;1.72;100.00
69528;BME280;57136;51.986;4.468;2023-02-15T00:50:27;102991.97;;;1.66;100.00
69528;BME280;57136;51.986;4.468;2023-02-15T00:52:52;102990.06;;;1.63;100.00
69528;BME280;57136;51.986;4.468;2023-02-15T00:55:18;102996.19;;;1.65;100.00
69528;BME280;57136;51.986;4.468;2023-02-15T00:57:43;102992.84;;;1.66;100.00
69528;BME280;57136;51.986;4.468;2023-02-15T01:00:09;102981.34;;;1.73;100.00
69528;BME280;57136;51.986;4.468;2023-02-15T01:02:34;102983.50;;;1.78;100.00
69528;BME280;57136;51.986;4.468;2023-02-15T01:05:00;102980.81;;;1.77;100.00
69528;BME280;57136;51.986;4.468;2023-02-15T01:07:26;102978.91;;;1.74;100.00
69528;BME280;57136;51.986;4.468;2023-02-15T01:09:51;102977.91;;;1.72;100.00
69528;BME280;57136;51.986;4.468;2023-02-15T01:12:16;102972.63;;;1.71;100.00
69528;BME280;57136;51.986;4.468;2023-02-15T01:14:43;102979.56;;;1.72;100.00
69528;BME280;57136;51.986;4.468;2023-02-15T01:17:08;102976.88;;;1.70;100.00
69528;BME280;57136;51.986;4.468;2023-02-15T01:19:34;102977.00;;;1.72;100.00
69528;BME280;57136;51.986;4.468;2023-02-15T01:21:59;102972.53;;;1.69;100.00
69528;BME280;57136;51.986;4.468;2023-02-15T01:24:24;102969.19;;;1.70;100.00
69528;BME280;57136;51.986;4.468;2023-02-15T01:26:50;102969.19;;;1.70;100.00
69528;BME280;57136;51.986;4.468;2023-02-15T01:29:15;102962.25;;;1.69;100.00
69528;BME280;57136;51.986;4.468;2023-02-15T01:31:40;102961.34;;;1.69;100.00
69528;BME280;57136;51.986;4.468;2023-02-15T01:34:06;102968.06;;;1.67;100.00
69528;BME280;57136;51.986;4.468;2023-02-15T01:36:33;102968.94;;;1.67;100.00
69528;BME280;57136;51.986;4.468;2023-02-15T01:39:04;102958.66;;;1.67;100.00
69528;BME280;57136;51.986;4.468;2023-02-15T01:41:30;102954.41;;;1.68;100.00
69528;BME280;57136;51.986;4.468;2023-02-15T01:43:59;102945.81;;;1.67;100.00
69528;BME280;57136;51.986;4.468;2023-02-15T01:46:40;102947.59;;;1.68;100.00
69528;BME280;57136;51.986;4.468;2023-02-15T01:49:14;102944.94;;;1.67;100.00
69528;BME280;57136;51.986;4.468;2023-02-15T01:51:42;102938.97;;;1.68;100.00
69528;BME280;57136;51.986;4.468;2023-02-15T01:54:25;102939.13;;;1.69;100.00
69528;BME280;57136;51.986;4.468;2023-02-15T01:56:55;102941.94;;;1.84;100.00
69528;BME280;57136;51.986;4.468;2023-02-15T01:59:23;102936.56;;;1.93;100.00
69528;BME280;57136;51.986;4.468;2023-02-15T02:01:51;102934.91;;;1.93;100.00
69528;BME280;57136;51.986;4.468;2023-02-15T02:06:54;102933.75;;;1.90;100.00
69528;BME280;57136;51.986;4.468;2023-02-15T02:09:20;102928.06;;;1.82;100.00
69528;BME280;57136;51.986;4.468;2023-02-15T02:11:46;102929.28;;;1.75;100.00
69528;BME280;57136;51.986;4.468;2023-02-15T02:14:13;102924.69;;;1.71;100.00
69528;BME280;57136;51.986;4.468;2023-02-15T02:19:21;102915.03;;;1.57;100.00
69528;BME280;57136;51.986;4.468;2023-02-15T02:27:52;102913.16;;;1.54;100.00
69528;BME280;57136;51.986;4.468;2023-02-15T02:30:51;102903.41;;;1.50;100.00
69528;BME280;57136;51.986;4.468;2023-02-15T02:33:24;102904.19;;;1.49;100.00
69528;BME280;57136;51.986;4.468;2023-02-15T02:41:44;102896.25;;;1.46;100.00
69528;BME280;57136;51.986;4.468;2023-02-15T02:44:23;102888.22;;;1.41;100.00
69528;BME280;57136;51.986;4.468;2023-02-15T02:46:58;102885.06;;;1.33;100.00
69528;BME280;57136;51.986;4.468;2023-02-15T02:49:42;102882.81;;;1.26;100.00
69528;BME280;57136;51.986;4.468;2023-02-15T02:52:40;102884.38;;;1.24;100.00
69528;BME280;57136;51.986;4.468;2023-02-15T02:57:34;102888.25;;;1.19;100.00
69528;BME280;57136;51.986;4.468;2023-02-15T03:00:04;102882.09;;;1.17;100.00
69528;BME280;57136;51.986;4.468;2023-02-15T03:02:37;102880.09;;;1.13;100.00
69528;BME280;57136;51.986;4.468;2023-02-15T03:05:05;102883.56;;;1.13;100.00
69528;BME280;57136;51.986;4.468;2023-02-15T03:07:33;102881.53;;;1.09;100.00
69528;BME280;57136;51.986;4.468;2023-02-15T03:10:03;102874.59;;;1.08;100.00
69528;BME280;57136;51.986;4.468;2023-02-15T03:12:32;102881.44;;;1.08;100.00
69528;BME280;57136;51.986;4.468;2023-02-15T03:15:20;102870.56;;;1.00;100.00
69528;BME280;57136;51.986;4.468;2023-02-15T03:17:49;102866.09;;;0.97;100.00
69528;BME280;57136;51.986;4.468;2023-02-15T03:20:24;102863.28;;;0.94;100.00
69528;BME280;57136;51.986;4.468;2023-02-15T03:22:56;102861.25;;;0.90;100.00
69528;BME280;57136;51.986;4.468;2023-02-15T03:25:44;102855.47;;;0.93;100.00
69528;BME280;57136;51.986;4.468;2023-02-15T03:28:15;102850.34;;;0.93;100.00
69528;BME280;57136;51.986;4.468;2023-02-15T03:30:46;102854.56;;;0.92;100.00
69528;BME280;57136;51.986;4.468;2023-02-15T03:33:15;102856.50;;;0.95;100.00
69528;BME280;57136;51.986;4.468;2023-02-15T03:35:49;102850.34;;;0.93;100.00
69528;BME280;57136;51.986;4.468;2023-02-15T03:38:21;102854.56;;;0.92;100.00
69528;BME280;57136;51.986;4.468;2023-02-15T03:40:53;102851.75;;;0.89;100.00
69528;BME280;57136;51.986;4.468;2023-02-15T03:43:48;102852.44;;;0.86;100.00
69528;BME280;57136;51.986;4.468;2023-02-15T03:46:35;102855.78;;;0.85;100.00
69528;BME280;57136;51.986;4.468;2023-02-15T03:51:35;102840.81;;;0.80;100.00
69528;BME280;57136;51.986;4.468;2023-02-15T03:56:59;102834.13;;;0.82;100.00
69528;BME280;57136;51.986;4.468;2023-02-15T03:59:44;102829.38;;;0.76;100.00
69528;BME280;57136;51.986;4.468;2023-02-15T04:02:35;102826.47;;;0.71;100.00
69528;BME280;57136;51.986;4.468;2023-02-15T04:05:03;102821.13;;;0.68;100.00
69528;BME280;57136;51.986;4.468;2023-02-15T04:07:28;102820.22;;;0.68;100.00
69528;BME280;57136;51.986;4.468;2023-02-15T04:09:54;102811.38;;;0.64;100.00
69528;BME280;57136;51.986;4.468;2023-02-15T04:12:38;102812.41;;;0.66;100.00
69528;BME280;57136;51.986;4.468;2023-02-15T04:15:03;102809.63;;;0.75;100.00
69528;BME280;57136;51.986;4.468;2023-02-15T04:17:48;102806.94;;;0.96;100.00
69528;BME280;57136;51.986;4.468;2023-02-15T04:20:13;102815.06;;;1.02;100.00
69528;BME280;57136;51.986;4.468;2023-02-15T04:22:57;102805.19;;;1.07;100.00
69528;BME280;57136;51.986;4.468;2023-02-15T04:25:41;102809.31;;;1.04;100.00
69528;BME280;57136;51.986;4.468;2023-02-15T04:28:06;102803.16;;;1.02;100.00
69528;BME280;57136;51.986;4.468;2023-02-15T04:30:32;102809.41;;;1.06;100.00
69528;BME280;57136;51.986;4.468;2023-02-15T04:32:58;102810.53;;;1.10;100.00
69528;BME280;57136;51.986;4.468;2023-02-15T04:35:23;102812.66;;;1.15;100.00
69528;BME280;57136;51.986;4.468;2023-02-15T04:37:48;102807.53;;;1.15;100.00
69528;BME280;57136;51.986;4.468;2023-02-15T04:40:14;102814.09;;;1.12;100.00
69528;BME280;57136;51.986;4.468;2023-02-15T04:42:40;102801.94;;;1.09;100.00
69528;BME280;57136;51.986;4.468;2023-02-15T04:45:06;102808.63;;;1.07;100.00
69528;BME280;57136;51.986;4.468;2023-02-15T04:47:32;102795.69;;;1.06;100.00
69528;BME280;57136;51.986;4.468;2023-02-15T04:49:57;102799.59;;;1.12;100.00
69528;BME280;57136;51.986;4.468;2023-02-15T04:52:23;102795.03;;;1.20;100.00
69528;BME280;57136;51.986;4.468;2023-02-15T04:54:48;102793.94;;;1.28;100.00
69528;BME280;57136;51.986;4.468;2023-02-15T04:57:16;102801.19;;;1.34;100.00
69528;BME280;57136;51.986;4.468;2023-02-15T04:59:42;102795.59;;;1.40;100.00
69528;BME280;57136;51.986;4.468;2023-02-15T05:02:07;102800.19;;;1.44;100.00
69528;BME280;57136;51.986;4.468;2023-02-15T05:04:32;102800.41;;;1.47;100.00
69528;BME280;57136;51.986;4.468;2023-02-15T05:06:58;102799.53;;;1.46;100.00
69528;BME280;57136;51.986;4.468;2023-02-15T05:09:23;102790.25;;;1.48;100.00
69528;BME280;57136;51.986;4.468;2023-02-15T05:11:48;102789.72;;;1.53;100.00
69528;BME280;57136;51.986;4.468;2023-02-15T05:14:14;102778.97;;;1.58;100.00
69528;BME280;57136;51.986;4.468;2023-02-15T05:16:39;102780.75;;;1.59;100.00
69528;BME280;57136;51.986;4.468;2023-02-15T05:19:05;102780.53;;;1.56;100.00
69528;BME280;57136;51.986;4.468;2023-02-15T05:21:31;102774.16;;;1.51;100.00
69528;BME280;57136;51.986;4.468;2023-02-15T05:23:57;102772.16;;;1.59;100.00
69528;BME280;57136;51.986;4.468;2023-02-15T05:26:23;102767.22;;;1.62;100.00
69528;BME280;57136;51.986;4.468;2023-02-15T05:29:08;102772.81;;;1.68;100.00
69528;BME280;57136;51.986;4.468;2023-02-15T05:31:34;102768.13;;;1.62;100.00
69528;BME280;57136;51.986;4.468;2023-02-15T05:34:00;102772.81;;;1.56;100.00
69528;BME280;57136;51.986;4.468;2023-02-15T05:36:26;102759.31;;;1.47;100.00
69528;BME280;57136;51.986;4.468;2023-02-15T05:38:53;102764.13;;;1.42;100.00
69528;BME280;57136;51.986;4.468;2023-02-15T05:41:18;102757.50;;;1.34;100.00
69528;BME280;57136;51.986;4.468;2023-02-15T05:43:43;102764.91;;;1.29;100.00
69528;BME280;57136;51.986;4.468;2023-02-15T05:46:09;102762.09;;;1.26;100.00
69528;BME280;57136;51.986;4.468;2023-02-15T05:48:35;102762.41;;;1.19;100.00
69528;BME280;57136;51.986;4.468;2023-02-15T05:51:07;102768.09;;;1.15;100.00
69528;BME280;57136;51.986;4.468;2023-02-15T05:53:34;102761.06;;;1.12;100.00
69528;BME280;57136;51.986;4.468;2023-02-15T05:56:00;102762.41;;;1.07;100.00
69528;BME280;57136;51.986;4.468;2023-02-15T05:58:30;102751.91;;;1.04;100.00
69528;BME280;57136;51.986;4.468;2023-02-15T06:00:55;102762.72;;;1.12;100.00
69528;BME280;57136;51.986;4.468;2023-02-15T06:03:22;102758.41;;;1.11;100.00
69528;BME280;57136;51.986;4.468;2023-02-15T06:05:48;102750.47;;;1.08;100.00
69528;BME280;57136;51.986;4.468;2023-02-15T06:08:15;102750.47;;;1.08;100.00
69528;BME280;57136;51.986;4.468;2023-02-15T06:10:40;102750.81;;;1.12;100.00
69528;BME280;57136;51.986;4.468;2023-02-15T06:13:06;102748.47;;;1.15;100.00
69528;BME280;57136;51.986;4.468;2023-02-15T06:15:31;102743.78;;;1.22;100.00
69528;BME280;57136;51.986;4.468;2023-02-15T06:17:57;102745.00;;;1.27;100.00
69528;BME280;57136;51.986;4.468;2023-02-15T06:20:22;102748.81;;;1.32;100.00
69528;BME280;57136;51.986;4.468;2023-02-15T06:22:48;102757.41;;;1.32;100.00
69528;BME280;57136;51.986;4.468;2023-02-15T06:25:13;102767.56;;;1.31;100.00
69528;BME280;57136;51.986;4.468;2023-02-15T06:27:41;102774.03;;;1.26;100.00
69528;BME280;57136;51.986;4.468;2023-02-15T06:30:08;102769.34;;;1.20;100.00
69528;BME280;57136;51.986;4.468;2023-02-15T06:32:34;102759.19;;;1.22;100.00
69528;BME280;57136;51.986;4.468;2023-02-15T06:34:59;102752.84;;;1.28;100.00
69528;BME280;57136;51.986;4.468;2023-02-15T06:37:26;102756.88;;;1.37;100.00
69528;BME280;57136;51.986;4.468;2023-02-15T06:39:51;102758.28;;;1.45;100.00
69528;BME280;57136;51.986;4.468;2023-02-15T06:42:21;102752.38;;;1.58;100.00
69528;BME280;57136;51.986;4.468;2023-02-15T06:44:46;102747.56;;;1.74;100.00
69528;BME280;57136;51.986;4.468;2023-02-15T06:47:13;102743.41;;;1.88;100.00
69528;BME280;57136;51.986;4.468;2023-02-15T06:49:38;102742.25;;;1.97;100.00
69528;BME280;57136;51.986;4.468;2023-02-15T06:52:04;102745.16;;;2.01;100.00
69528;BME280;57136;51.986;4.468;2023-02-15T06:54:29;102746.72;;;1.99;100.00
69528;BME280;57136;51.986;4.468;2023-02-15T06:56:55;102745.59;;;1.95;100.00
69528;BME280;57136;51.986;4.468;2023-02-15T06:59:20;102752.34;;;1.93;100.00
69528;BME280;57136;51.986;4.468;2023-02-15T07:01:46;102738.78;;;1.96;100.00
69528;BME280;57136;51.986;4.468;2023-02-15T07:04:11;102738.25;;;1.88;100.00
69528;BME280;57136;51.986;4.468;2023-02-15T07:06:36;102737.81;;;1.82;100.00
69528;BME280;57136;51.986;4.468;2023-02-15T07:09:02;102738.50;;;1.79;100.00
69528;BME280;57136;51.986;4.468;2023-02-15T07:11:30;102742.88;;;1.81;100.00
69528;BME280;57136;51.986;4.468;2023-02-15T07:14:14;102745.28;;;1.91;100.00
69528;BME280;57136;51.986;4.468;2023-02-15T07:16:39;102738.25;;;1.88;100.00
69528;BME280;57136;51.986;4.468;2023-02-15T07:19:05;102737.47;;;1.89;100.00
69528;BME280;57136;51.986;4.468;2023-02-15T07:21:30;102736.22;;;1.96;100.00
69528;BME280;57136;51.986;4.468;2023-02-15T07:23:57;102732.97;;;1.99;100.00
69528;BME280;57136;51.986;4.468;2023-02-15T07:26:22;102733.97;;;2.01;100.00
69528;BME280;57136;51.986;4.468;2023-02-15T07:28:48;102733.41;;;2.05;100.00
69528;BME280;57136;51.986;4.468;2023-02-15T07:31:13;102735.84;;;2.15;100.00
69528;BME280;57136;51.986;4.468;2023-02-15T07:33:38;102726.75;;;2.20;100.00
69528;BME280;57136;51.986;4.468;2023-02-15T07:36:04;102729.97;;;2.30;100.00
69528;BME280;57136;51.986;4.468;2023-02-15T07:38:35;102725.16;;;2.34;100.00
69528;BME280;57136;51.986;4.468;2023-02-15T07:41:06;102719.53;;;2.40;100.00
69528;BME280;57136;51.986;4.468;2023-02-15T07:43:37;102721.94;;;2.50;100.00
69528;BME280;57136;51.986;4.468;2023-02-15T07:46:05;102722.25;;;2.55;100.00
69528;BME280;57136;51.986;4.468;2023-02-15T07:48:34;102720.09;;;2.61;100.00
69528;BME280;57136;51.986;4.468;2023-02-15T07:51:00;102718.31;;;2.74;100.00
69528;BME280;57136;51.986;4.468;2023-02-15T07:53:27;102717.94;;;2.81;100.00
69528;BME280;57136;51.986;4.468;2023-02-15T07:55:52;102716.09;;;2.92;100.00
69528;BME280;57136;51.986;4.468;2023-02-15T07:58:21;102714.50;;;2.94;100.00
69528;BME280;57136;51.986;4.468;2023-02-15T08:01:06;102714.22;;;3.03;100.00
69528;BME280;57136;51.986;4.468;2023-02-15T08:03:31;102702.94;;;3.14;100.00
69528;BME280;57136;51.986;4.468;2023-02-15T08:05:58;102707.50;;;3.18;100.00
69528;BME280;57136;51.986;4.468;2023-02-15T08:08:26;102713.63;;;3.34;100.00
69528;BME280;57136;51.986;4.468;2023-02-15T08:11:23;102702.94;;;3.41;100.00
69528;BME280;57136;51.986;4.468;2023-02-15T08:13:59;102701.63;;;3.48;100.00
69528;BME280;57136;51.986;4.468;2023-02-15T08:16:31;102699.06;;;3.61;100.00
69528;BME280;57136;51.986;4.468;2023-02-15T08:18:58;102700.78;;;3.75;100.00
69528;BME280;57136;51.986;4.468;2023-02-15T08:21:27;102702.66;;;3.92;100.00
69528;BME280;57136;51.986;4.468;2023-02-15T08:23:53;102697.34;;;4.03;100.00
69528;BME280;57136;51.986;4.468;2023-02-15T08:26:19;102695.94;;;4.09;100.00
69528;BME280;57136;51.986;4.468;2023-02-15T08:28:44;102691.84;;;4.12;100.00
69528;BME280;57136;51.986;4.468;2023-02-15T08:31:12;102691.69;;;4.24;100.00
69528;BME280;57136;51.986;4.468;2023-02-15T08:33:40;102694.06;;;4.34;100.00
69528;BME280;57136;51.986;4.468;2023-02-15T08:36:11;102684.09;;;4.41;100.00
69528;BME280;57136;51.986;4.468;2023-02-15T08:38:36;102693.72;;;4.43;100.00
69528;BME280;57136;51.986;4.468;2023-02-15T08:41:13;102684.56;;;4.48;100.00
69528;BME280;57136;51.986;4.468;2023-02-15T08:43:39;102696.31;;;4.58;100.00
69528;BME280;57136;51.986;4.468;2023-02-15T08:46:06;102687.34;;;4.82;100.00
69528;BME280;57136;51.986;4.468;2023-02-15T08:48:31;102691.94;;;5.17;100.00
69528;BME280;57136;51.986;4.468;2023-02-15T08:50:56;102701.31;;;5.47;100.00
69528;BME280;57136;51.986;4.468;2023-02-15T08:53:22;102701.38;;;5.63;100.00
69528;BME280;57136;51.986;4.468;2023-02-15T08:55:55;102704.78;;;5.79;100.00
69528;BME280;57136;51.986;4.468;2023-02-15T08:58:21;102703.09;;;5.79;100.00
69528;BME280;57136;51.986;4.468;2023-02-15T09:00:46;102698.31;;;5.87;100.00
69528;BME280;57136;51.986;4.468;2023-02-15T09:03:12;102691.56;;;6.06;100.00
69528;BME280;57136;51.986;4.468;2023-02-15T09:05:37;102699.66;;;6.45;100.00
69528;BME280;57136;51.986;4.468;2023-02-15T09:08:02;102701.97;;;6.92;100.00
69528;BME280;57136;51.986;4.468;2023-02-15T09:10:28;102699.69;;;6.98;100.00
69528;BME280;57136;51.986;4.468;2023-02-15T09:12:53;102699.84;;;7.01;100.00
69528;BME280;57136;51.986;4.468;2023-02-15T09:15:18;102700.09;;;7.61;100.00
69528;BME280;57136;51.986;4.468;2023-02-15T09:17:44;102692.22;;;8.17;100.00
69528;BME280;57136;51.986;4.468;2023-02-15T09:20:09;102688.44;;;8.91;100.00
69528;BME280;57136;51.986;4.468;2023-02-15T09:22:35;102684.78;;;9.29;100.00
69528;BME280;57136;51.986;4.468;2023-02-15T09:25:00;102684.81;;;9.77;100.00
69528;BME280;57136;51.986;4.468;2023-02-15T09:27:26;102686.66;;;9.79;100.00
69528;BME280;57136;51.986;4.468;2023-02-15T09:29:51;102690.78;;;9.97;100.00
69528;BME280;57136;51.986;4.468;2023-02-15T09:32:16;102690.38;;;10.34;100.00
69528;BME280;57136;51.986;4.468;2023-02-15T09:34:43;102686.25;;;10.15;100.00
69528;BME280;57136;51.986;4.468;2023-02-15T09:37:08;102681.00;;;10.90;100.00
69528;BME280;57136;51.986;4.468;2023-02-15T09:39:37;102669.94;;;10.97;99.66
69528;BME280;57136;51.986;4.468;2023-02-15T09:42:16;102674.28;;;11.54;100.00
69528;BME280;57136;51.986;4.468;2023-02-15T09:47:34;102668.25;;;10.99;91.94
69528;BME280;57136;51.986;4.468;2023-02-15T09:53:06;102683.59;;;10.90;89.62
69528;BME280;57136;51.986;4.468;2023-02-15T09:56:04;102674.63;;;10.82;88.20
69528;BME280;57136;51.986;4.468;2023-02-15T09:58:45;102684.44;;;10.63;87.28
69528;BME280;57136;51.986;4.468;2023-02-15T10:07:25;102683.81;;;9.73;86.85
69528;BME280;57136;51.986;4.468;2023-02-15T10:10:19;102688.13;;;9.95;86.58
69528;BME280;57136;51.986;4.468;2023-02-15T10:13:23;102688.28;;;10.00;86.63
69528;BME280;57136;51.986;4.468;2023-02-15T10:15:59;102691.50;;;10.17;85.72
69528;BME280;57136;51.986;4.468;2023-02-15T10:24:21;102683.00;;;10.45;79.48
69528;BME280;57136;51.986;4.468;2023-02-15T10:26:47;102681.81;;;10.89;83.53
69528;BME280;57136;51.986;4.468;2023-02-15T10:29:26;102683.19;;;11.32;81.94
69528;BME280;57136;51.986;4.468;2023-02-15T10:46:36;102662.84;;;12.10;73.06
69528;BME280;57136;51.986;4.468;2023-02-15T10:57:03;102646.03;;;12.68;68.48
69528;BME280;57136;51.986;4.468;2023-02-15T11:07:55;102650.25;;;11.97;69.13
69528;BME280;57136;51.986;4.468;2023-02-15T11:10:35;102639.91;;;12.00;69.33
69528;BME280;57136;51.986;4.468;2023-02-15T11:13:08;102645.31;;;11.76;70.56
69528;BME280;57136;51.986;4.468;2023-02-15T11:15:45;102644.53;;;11.49;70.59
69528;BME280;57136;51.986;4.468;2023-02-15T11:18:19;102636.34;;;11.37;72.42
69528;BME280;57136;51.986;4.468;2023-02-15T11:20:59;102630.97;;;11.32;73.24
69528;BME280;57136;51.986;4.468;2023-02-15T11:23:27;102629.59;;;11.44;73.31
69528;BME280;57136;51.986;4.468;2023-02-15T11:28:51;102626.78;;;11.37;72.36
69528;BME280;57136;51.986;4.468;2023-02-15T11:31:22;102620.34;;;10.97;73.65
69528;BME280;57136;51.986;4.468;2023-02-15T11:33:52;102630.94;;;11.02;73.66
69528;BME280;57136;51.986;4.468;2023-02-15T11:36:28;102627.78;;;11.41;74.14
69528;BME280;57136;51.986;4.468;2023-02-15T11:39:02;102626.75;;;11.66;71.69
69528;BME280;57136;51.986;4.468;2023-02-15T11:41:34;102609.47;;;12.02;70.45
69528;BME280;57136;51.986;4.468;2023-02-15T11:44:06;102611.78;;;11.91;70.56
69528;BME280;57136;51.986;4.468;2023-02-15T11:46:36;102614.94;;;11.49;71.60
69528;BME280;57136;51.986;4.468;2023-02-15T11:49:02;102605.31;;;12.09;70.52
69528;BME280;57136;51.986;4.468;2023-02-15T11:51:28;102594.03;;;12.10;69.23
69528;BME280;57136;51.986;4.468;2023-02-15T11:53:54;102594.41;;;12.61;68.16
69528;BME280;57136;51.986;4.468;2023-02-15T11:56:25;102586.75;;;13.07;65.66
69528;BME280;57136;51.986;4.468;2023-02-15T11:59:32;102600.56;;;13.01;65.25
69528;BME280;57136;51.986;4.468;2023-02-15T12:02:02;102599.09;;;13.12;64.33
69528;BME280;57136;51.986;4.468;2023-02-15T12:04:35;102597.38;;;12.74;65.04
69528;BME280;57136;51.986;4.468;2023-02-15T12:09:50;102599.38;;;14.14;61.12
69528;BME280;57136;51.986;4.468;2023-02-15T12:12:22;102586.88;;;14.49;59.86
69528;BME280;57136;51.986;4.468;2023-02-15T12:14:59;102582.22;;;14.31;59.29
69528;BME280;57136;51.986;4.468;2023-02-15T12:17:33;102582.50;;;14.50;58.91
69528;BME280;57136;51.986;4.468;2023-02-15T12:20:07;102579.88;;;15.08;57.49
69528;BME280;57136;51.986;4.468;2023-02-15T12:22:51;102588.53;;;15.69;54.95
69528;BME280;57136;51.986;4.468;2023-02-15T12:25:36;102577.75;;;16.30;53.85
69528;BME280;57136;51.986;4.468;2023-02-15T12:28:03;102582.09;;;15.42;54.36
69528;BME280;57136;51.986;4.468;2023-02-15T12:30:35;102588.72;;;14.55;56.29
69528;BME280;57136;51.986;4.468;2023-02-15T12:36:09;102583.75;;;14.20;59.98
69528;BME280;57136;51.986;4.468;2023-02-15T12:38:37;102578.47;;;13.69;62.46
69528;BME280;57136;51.986;4.468;2023-02-15T12:41:22;102574.69;;;13.55;62.83
69528;BME280;57136;51.986;4.468;2023-02-15T12:44:04;102572.34;;;13.27;63.82
69528;BME280;57136;51.986;4.468;2023-02-15T12:46:29;102564.69;;;13.37;63.84
69528;BME280;57136;51.986;4.468;2023-02-15T12:52:04;102569.66;;;13.23;66.02
69528;BME280;57136;51.986;4.468;2023-02-15T12:54:40;102570.59;;;13.26;65.30
69528;BME280;57136;51.986;4.468;2023-02-15T12:59:57;102560.66;;;13.11;65.59
69528;BME280;57136;51.986;4.468;2023-02-15T13:02:47;102559.59;;;13.03;66.86
69528;BME280;57136;51.986;4.468;2023-02-15T13:08:04;102554.94;;;13.29;66.45
69528;BME280;57136;51.986;4.468;2023-02-15T13:10:37;102551.88;;;13.49;64.76
69528;BME280;57136;51.986;4.468;2023-02-15T13:13:14;102549.56;;;13.65;64.29
69528;BME280;57136;51.986;4.468;2023-02-15T13:15:49;102547.56;;;13.51;63.95
69528;BME280;57136;51.986;4.468;2023-02-15T13:18:30;102546.16;;;13.27;65.99
69528;BME280;57136;51.986;4.468;2023-02-15T13:20:57;102554.75;;;13.61;66.27
69528;BME280;57136;51.986;4.468;2023-02-15T13:23:30;102549.88;;;13.39;66.02
69528;BME280;57136;51.986;4.468;2023-02-15T13:25:59;102550.19;;;13.11;66.36
69528;BME280;57136;51.986;4.468;2023-02-15T13:28:38;102533.25;;;12.94;67.24
69528;BME280;57136;51.986;4.468;2023-02-15T13:31:12;102538.47;;;13.35;66.48
69528;BME280;57136;51.986;4.468;2023-02-15T13:33:38;102529.28;;;13.13;66.73
69528;BME280;57136;51.986;4.468;2023-02-15T13:36:21;102529.34;;;13.59;66.42
69528;BME280;57136;51.986;4.468;2023-02-15T13:39:08;102528.22;;;13.44;65.10
69528;BME280;57136;51.986;4.468;2023-02-15T13:41:58;102528.50;;;13.58;64.89
69528;BME280;57136;51.986;4.468;2023-02-15T13:55:57;102510.66;;;14.40;60.81
69528;BME280;57136;51.986;4.468;2023-02-15T13:58:42;102502.69;;;14.32;61.32
69528;BME280;57136;51.986;4.468;2023-02-15T14:04:03;102502.56;;;14.85;59.59
69528;BME280;57136;51.986;4.468;2023-02-15T14:09:20;102493.22;;;15.87;56.34
69528;BME280;57136;51.986;4.468;2023-02-15T14:12:15;102491.47;;;15.87;56.45
69528;BME280;57136;51.986;4.468;2023-02-15T14:15:02;102494.84;;;15.77;56.62
69528;BME280;57136;51.986;4.468;2023-02-15T14:17:51;102495.50;;;15.54;56.35
69528;BME280;57136;51.986;4.468;2023-02-15T14:20:45;102487.94;;;15.04;58.15
69528;BME280;57136;51.986;4.468;2023-02-15T14:26:04;102506.81;;;14.18;60.17
69528;BME280;57136;51.986;4.468;2023-02-15T14:31:14;102502.13;;;13.98;61.66
69528;BME280;57136;51.986;4.468;2023-02-15T14:33:45;102502.88;;;13.91;61.38
69528;BME280;57136;51.986;4.468;2023-02-15T14:36:16;102507.53;;;14.09;61.27
69528;BME280;57136;51.986;4.468;2023-02-15T14:39:02;102500.19;;;13.88;61.01
69528;BME280;57136;51.986;4.468;2023-02-15T14:41:44;102507.03;;;13.33;63.58
69528;BME280;57136;51.986;4.468;2023-02-15T14:44:33;102509.31;;;13.61;62.66
69528;BME280;57136;51.986;4.468;2023-02-15T14:47:19;102507.78;;;13.72;62.11
69528;BME280;57136;51.986;4.468;2023-02-15T14:49:47;102500.34;;;13.48;62.27
69528;BME280;57136;51.986;4.468;2023-02-15T14:52:12;102500.53;;;13.59;63.49
69528;BME280;57136;51.986;4.468;2023-02-15T15:02:45;102496.28;;;12.78;67.92
69528;BME280;57136;51.986;4.468;2023-02-15T15:05:32;102494.38;;;12.71;67.99
69528;BME280;57136;51.986;4.468;2023-02-15T15:08:00;102500.28;;;12.62;69.00
69528;BME280;57136;51.986;4.468;2023-02-15T15:10:43;102502.41;;;12.40;69.89
69528;BME280;57136;51.986;4.468;2023-02-15T15:13:38;102498.31;;;12.52;71.18